Time;durP1;ratioP1;P1;durP2;ratioP2;P2;SDS_P1;SDS_P2;PMS_P1;PMS_P2;Temp;Humidity;BMP_temperature;BMP_pressure;BME280_temperature;BME280_humidity;BME280_pressure;Samples;Min_cycle;Max_cycle;Signal;HPM_P1;HPM_P2
2021/08/05 00:01:30;;;;;;;39.95;36.72;;;;;;;18.05;100.00;100762.88;5085636;28;20049;-80
2021/08/05 00:03:57;;;;;;;35.42;32.92;;;;;;;18.15;100.00;100762.16;5089809;28;20055;-79
2021/08/05 00:06:24;;;;;;;38.10;35.63;;;;;;;17.93;100.00;100765.72;5085395;28;20106;-79
2021/08/05 00:08:52;;;;;;;34.50;32.20;;;;;;;18.05;100.00;100768.25;5090151;28;20059;-78
2021/08/05 00:11:19;;;;;;;37.30;34.95;;;;;;;17.89;100.00;100766.50;5087831;28;20056;-80
2021/08/05 00:13:46;;;;;;;38.47;36.00;;;;;;;17.82;100.00;100772.03;5091897;28;20055;-78
2021/08/05 00:16:12;;;;;;;37.78;35.22;;;;;;;18.06;100.00;100757.25;5085497;28;20044;-80
2021/08/05 00:18:39;;;;;;;38.55;36.08;;;;;;;17.74;100.00;100769.78;5087972;28;20052;-81
2021/08/05 00:21:06;;;;;;;32.47;30.27;;;;;;;17.85;100.00;100772.38;5088791;28;20055;-78
2021/08/05 00:23:33;;;;;;;35.78;33.22;;;;;;;17.86;100.00;100767.78;5092216;28;20059;-80
2021/08/05 00:26:01;;;;;;;32.45;29.67;;;;;;;18.19;100.00;100766.78;5079056;28;20044;-78
2021/08/05 00:28:27;;;;;;;37.58;35.08;;;;;;;17.75;100.00;100768.72;5086085;28;20048;-81
2021/08/05 00:30:55;;;;;;;40.65;37.20;;;;;;;17.79;100.00;100770.69;5088114;28;20048;-79
2021/08/05 00:33:21;;;;;;;32.63;30.38;;;;;;;17.96;100.00;100762.50;5089373;28;20057;-78
2021/08/05 00:35:48;;;;;;;38.17;35.70;;;;;;;18.02;100.00;100768.75;5087301;28;20103;-78
2021/08/05 00:38:15;;;;;;;33.72;31.25;;;;;;;18.01;100.00;100761.78;5089562;28;20060;-79
2021/08/05 00:40:42;;;;;;;39.55;36.53;;;;;;;17.71;100.00;100756.88;5089923;28;20093;-80
2021/08/05 00:43:11;;;;;;;39.63;36.83;;;;;;;17.69;100.00;100758.97;5086669;28;20120;-80
2021/08/05 00:45:37;;;;;;;35.88;33.03;;;;;;;18.16;100.00;100758.41;5085274;28;20052;-79
2021/08/05 00:48:06;;;;;;;33.88;31.40;;;;;;;17.84;100.00;100757.28;5089846;28;20120;-81
2021/08/05 00:50:33;;;;;;;33.40;30.80;;;;;;;18.27;100.00;100757.41;5085749;28;20131;-78
2021/08/05 00:53:00;;;;;;;33.15;30.85;;;;;;;18.35;100.00;100751.56;5084560;28;20472;-81
2021/08/05 00:55:27;;;;;;;33.88;31.42;;;;;;;18.01;100.00;100748.34;5090542;28;20067;-80
2021/08/05 00:57:55;;;;;;;34.67;32.15;;;;;;;18.51;100.00;100747.94;5088672;28;20122;-79
2021/08/05 01:00:25;;;;;;;34.72;32.30;;;;;;;18.35;100.00;100732.75;5088966;28;20050;-78
2021/08/05 01:03:01;;;;;;;38.88;36.28;;;;;;;18.36;100.00;100734.38;5086747;28;20123;-79
2021/08/05 01:05:32;;;;;;;34.85;32.55;;;;;;;18.28;100.00;100726.81;5086723;28;20048;-79
2021/08/05 01:08:02;;;;;;;37.30;34.70;;;;;;;18.18;100.00;100737.44;5086436;28;20044;-80
2021/08/05 01:10:34;;;;;;;35.88;33.47;;;;;;;17.97;100.00;100736.44;5086495;28;20113;-79
2021/08/05 01:13:06;;;;;;;38.63;36.03;;;;;;;18.05;100.00;100744.88;5086025;28;20117;-79
2021/08/05 01:15:35;;;;;;;42.22;39.33;;;;;;;17.95;100.00;100744.78;5086340;28;20057;-78
2021/08/05 01:18:06;;;;;;;35.63;33.30;;;;;;;17.85;100.00;100752.72;5087708;28;20109;-79
2021/08/05 01:20:34;;;;;;;42.08;39.17;;;;;;;17.54;100.00;100748.88;5088610;28;20056;-78
2021/08/05 01:23:13;;;;;;;38.60;36.00;;;;;;;17.73;100.00;100744.81;5081772;28;20048;-79
2021/08/05 01:25:48;;;;;;;35.88;33.50;;;;;;;17.83;100.00;100744.13;5080818;28;20048;-80
2021/08/05 01:28:17;;;;;;;39.40;36.90;;;;;;;18.02;100.00;100741.88;5084528;28;20059;-79
2021/08/05 01:30:45;;;;;;;38.95;36.35;;;;;;;17.93;100.00;100727.28;5084145;28;20048;-78
2021/08/05 01:33:17;;;;;;;41.70;39.00;;;;;;;17.80;100.00;100723.13;5089300;28;20052;-81
2021/08/05 01:35:44;;;;;;;36.13;33.60;;;;;;;17.99;100.00;100721.69;5087103;28;20052;-81
2021/08/05 01:38:13;;;;;;;40.10;37.25;;;;;;;17.81;100.00;100716.69;5086156;28;20056;-78
2021/08/05 01:40:41;;;;;;;36.50;33.67;;;;;;;17.84;100.00;100718.88;5086433;28;20056;-81
2021/08/05 01:43:08;;;;;;;38.10;35.20;;;;;;;17.92;100.00;100715.72;5087367;28;20204;-79
2021/08/05 01:45:40;;;;;;;42.88;40.28;;;;;;;17.85;100.00;100713.25;5088128;28;20040;-80
2021/08/05 01:48:09;;;;;;;39.22;36.70;;;;;;;17.75;100.00;100720.38;5086765;28;20144;-78
2021/08/05 01:50:37;;;;;;;36.60;33.80;;;;;;;17.58;100.00;100713.22;5087031;28;20067;-78
2021/08/05 01:53:04;;;;;;;34.63;32.10;;;;;;;17.51;100.00;100711.78;5092398;28;20117;-80
2021/08/05 01:55:31;;;;;;;37.80;35.17;;;;;;;17.65;100.00;100710.34;5089828;28;20055;-79
2021/08/05 01:57:58;;;;;;;35.13;32.60;;;;;;;17.37;100.00;100703.31;5086563;28;20518;-78
2021/08/05 02:02:56;;;;;;;35.00;32.50;;;;;;;17.33;100.00;100703.00;5080038;28;20129;-79
2021/08/05 02:05:29;;;;;;;37.20;34.67;;;;;;;17.39;100.00;100701.19;5092727;28;20043;-80
2021/08/05 02:08:02;;;;;;;35.40;32.90;;;;;;;17.50;100.00;100702.91;5092793;28;20044;-80
2021/08/05 02:10:34;;;;;;;37.67;34.67;;;;;;;17.18;100.00;100705.50;5089515;28;20087;-79
2021/08/05 02:13:04;;;;;;;44.65;41.45;;;;;;;17.54;100.00;100698.66;5092979;28;20130;-78
2021/08/05 02:15:34;;;;;;;38.40;35.15;;;;;;;17.37;100.00;100698.75;5090878;28;20055;-79
2021/08/05 02:18:04;;;;;;;39.92;36.92;;;;;;;17.04;100.00;100682.81;5093752;28;20117;-79
2021/08/05 02:20:32;;;;;;;43.85;40.88;;;;;;;17.54;100.00;100684.44;5093395;28;20048;-84
2021/08/05 02:22:59;;;;;;;38.67;35.78;;;;;;;17.07;100.00;100682.31;5093648;28;20117;-80
2021/08/05 02:25:27;;;;;;;43.65;40.17;;;;;;;17.06;100.00;100689.53;5093429;28;20372;-79
2021/08/05 02:27:55;;;;;;;39.35;35.92;;;;;;;17.46;100.00;100696.44;5093021;28;20509;-79
2021/08/05 02:30:23;;;;;;;39.08;36.28;;;;;;;17.44;100.00;100685.13;5092752;28;20052;-79
2021/08/05 02:32:50;;;;;;;39.15;36.33;;;;;;;17.30;100.00;100686.59;5092508;28;20058;-78
2021/08/05 02:35:19;;;;;;;39.20;36.40;;;;;;;17.25;100.00;100690.03;5092518;28;20052;-79
2021/08/05 02:37:46;;;;;;;42.05;38.83;;;;;;;17.28;100.00;100696.78;5084785;28;20043;-79
2021/08/05 02:40:14;;;;;;;39.33;36.42;;;;;;;16.97;100.00;100692.88;5092370;28;20113;-79
2021/08/05 02:42:41;;;;;;;45.03;41.22;;;;;;;16.56;100.00;100695.81;5092416;28;20065;-79
2021/08/05 02:45:09;;;;;;;42.33;39.13;;;;;;;17.06;100.00;100702.94;5092232;28;20055;-81
2021/08/05 02:47:36;;;;;;;40.45;37.38;;;;;;;17.24;100.00;100688.41;5090781;28;20113;-78
2021/08/05 02:50:05;;;;;;;54.42;50.53;;;;;;;17.12;100.00;100699.25;5092759;28;20048;-80
2021/08/05 02:52:34;;;;;;;50.58;46.38;;;;;;;17.25;100.00;100699.97;5092272;28;20048;-84
2021/08/05 02:55:02;;;;;;;45.38;41.97;;;;;;;17.29;100.00;100698.38;5092547;28;20106;-78
2021/08/05 02:57:29;;;;;;;49.85;46.10;;;;;;;17.28;100.00;100696.78;5092587;28;20040;-79
2021/08/05 02:59:57;;;;;;;45.03;41.40;;;;;;;17.25;100.00;100697.28;5092215;28;20048;-79
2021/08/05 03:02:24;;;;;;;42.40;39.25;;;;;;;17.34;100.00;100695.78;5083296;28;20059;-80
2021/08/05 03:04:50;;;;;;;41.90;38.20;;;;;;;16.53;100.00;100695.47;5092453;28;20048;-79
2021/08/05 03:07:17;;;;;;;45.67;42.05;;;;;;;17.09;100.00;100694.38;5092964;28;20055;-80
2021/08/05 03:09:45;;;;;;;43.67;40.03;;;;;;;17.28;100.00;100691.41;5092939;28;20470;-79
2021/08/05 03:12:12;;;;;;;39.47;36.28;;;;;;;17.22;100.00;100695.09;5091948;28;20458;-79
2021/08/05 03:14:39;;;;;;;40.47;36.63;;;;;;;17.09;100.00;100694.38;5091792;28;20565;-79
2021/08/05 03:17:06;;;;;;;42.60;39.17;;;;;;;17.19;100.00;100696.41;5091818;28;20040;-79
2021/08/05 03:19:32;;;;;;;44.13;40.25;;;;;;;17.25;100.00;100695.41;5091903;28;20052;-81
2021/08/05 03:21:59;;;;;;;44.67;40.50;;;;;;;17.21;100.00;100699.63;5092452;28;20125;-79
2021/08/05 03:24:26;;;;;;;44.60;41.00;;;;;;;17.45;100.00;100697.50;5092529;28;20480;-79
2021/08/05 03:26:54;;;;;;;45.60;41.85;;;;;;;17.49;100.00;100701.31;5091192;28;20480;-78
2021/08/05 03:29:21;;;;;;;45.35;41.72;;;;;;;17.34;100.00;100701.94;5091570;28;20192;-79
2021/08/05 03:31:48;;;;;;;46.10;42.25;;;;;;;17.51;100.00;100696.47;5091371;28;20479;-79
2021/08/05 03:34:14;;;;;;;45.40;41.85;;;;;;;17.42;100.00;100689.13;5089810;28;20052;-79
2021/08/05 03:36:41;;;;;;;44.47;41.17;;;;;;;17.38;100.00;100683.47;5091267;28;20051;-78
2021/08/05 03:39:08;;;;;;;51.95;48.03;;;;;;;17.26;100.00;100677.41;5091577;28;20055;-80
2021/08/05 03:41:35;;;;;;;46.40;42.60;;;;;;;17.47;100.00;100673.91;5091378;28;20112;-78
2021/08/05 03:44:03;;;;;;;48.13;44.10;;;;;;;17.50;100.00;100683.31;5091125;28;20056;-78
2021/08/05 03:46:29;;;;;;;44.15;40.40;;;;;;;17.61;100.00;100675.13;5091363;28;20059;-79
2021/08/05 03:48:56;;;;;;;41.88;38.22;;;;;;;17.38;100.00;100675.41;5091129;28;20048;-82
2021/08/05 03:51:23;;;;;;;43.05;39.75;;;;;;;17.23;100.00;100672.56;5091809;28;20077;-79
2021/08/05 03:53:50;;;;;;;46.78;43.03;;;;;;;17.21;100.00;100680.03;5090751;28;20056;-79
2021/08/05 03:56:16;;;;;;;47.00;43.40;;;;;;;17.48;100.00;100678.19;5071584;28;20056;-78
2021/08/05 03:58:43;;;;;;;45.53;42.33;;;;;;;17.61;100.00;100675.13;5091911;28;20918;-81
2021/08/05 04:01:11;;;;;;;42.10;38.80;;;;;;;17.96;100.00;100667.66;5083816;28;20113;-80
2021/08/05 04:03:38;;;;;;;37.75;34.55;;;;;;;17.92;100.00;100664.69;5085316;28;20044;-80
2021/08/05 04:06:05;;;;;;;38.25;35.25;;;;;;;18.09;100.00;100661.84;5084523;28;20121;-79
2021/08/05 04:08:32;;;;;;;41.80;38.60;;;;;;;18.40;100.00;100662.09;5080972;28;20047;-79
2021/08/05 04:10:59;;;;;;;36.60;33.20;;;;;;;19.02;100.00;100657.84;5080801;28;20040;-78
2021/08/05 04:13:25;;;;;;;37.00;34.33;;;;;;;19.33;100.00;100661.44;5085874;28;20051;-80
2021/08/05 04:15:52;;;;;;;40.53;37.75;;;;;;;19.63;100.00;100653.44;5085784;28;20445;-80
2021/08/05 04:18:20;;;;;;;37.97;34.78;;;;;;;19.73;100.00;100668.00;5083348;28;20136;-79
2021/08/05 04:20:47;;;;;;;41.20;38.22;;;;;;;19.95;100.00;100657.81;5090027;28;20063;-78
2021/08/05 04:23:14;;;;;;;40.58;37.88;;;;;;;20.17;100.00;100659.41;5090605;28;20048;-78
2021/08/05 04:25:41;;;;;;;42.47;39.45;;;;;;;20.28;100.00;100653.75;5083232;28;20484;-79
2021/08/05 04:28:07;;;;;;;40.25;37.15;;;;;;;20.51;100.00;100655.03;5086533;28;20051;-80
2021/08/05 04:30:34;;;;;;;32.03;29.42;;;;;;;20.64;100.00;100650.19;5088679;28;20506;-80
2021/08/05 04:33:01;;;;;;;32.92;30.25;;;;;;;20.84;100.00;100638.50;5090438;28;20215;-80
2021/08/05 04:35:29;;;;;;;33.53;30.98;;;;;;;20.81;100.00;100637.97;5090820;28;20048;-79
2021/08/05 04:38:00;;;;;;;38.08;34.92;;;;;;;21.05;100.00;100650.81;5090531;28;20055;-80
2021/08/05 04:40:28;;;;;;;32.53;29.95;;;;;;;21.13;100.00;100642.16;5088997;28;20471;-80
2021/08/05 04:42:56;;;;;;;34.42;31.65;;;;;;;21.05;100.00;100640.81;5089906;28;20051;-78
2021/08/05 04:45:23;;;;;;;33.47;30.65;;;;;;;21.24;100.00;100648.28;5087193;28;20051;-79
2021/08/05 04:47:55;;;;;;;34.83;31.92;;;;;;;21.53;100.00;100643.03;5085455;28;20380;-78
2021/08/05 04:50:23;;;;;;;34.85;32.20;;;;;;;21.32;100.00;100633.41;5089478;28;20048;-81
2021/08/05 04:52:51;;;;;;;34.97;32.03;;;;;;;21.46;100.00;100637.13;5083021;28;20045;-81
2021/08/05 04:55:18;;;;;;;38.17;35.17;;;;;;;21.34;100.00;100637.44;5084785;28;20118;-79
2021/08/05 04:57:50;;;;;;;37.45;33.72;;;;;;;21.38;100.00;100635.03;5084924;28;20040;-80
2021/08/05 05:00:22;;;;;;;32.90;30.02;;;;;;;21.88;100.00;100635.75;5088757;28;20052;-79
2021/08/05 05:02:48;;;;;;;32.60;30.13;;;;;;;26.81;100.00;100625.38;5095633;28;20052;-80
2021/08/05 05:05:15;;;;;;;34.97;32.08;;;;;;;22.45;100.00;100626.03;5086535;28;20045;-78
2021/08/05 05:07:42;;;;;;;39.80;36.55;;;;;;;21.49;100.00;100626.56;5093605;28;20047;-78
2021/08/05 05:10:12;;;;;;;38.15;34.72;;;;;;;21.39;100.00;100631.22;5095212;28;20040;-79
2021/08/05 05:12:39;;;;;;;35.80;32.33;;;;;;;26.23;100.00;100624.50;5093754;28;20044;-82
2021/08/05 05:15:07;;;;;;;36.45;33.03;;;;;;;23.36;100.00;100625.16;5087230;28;20044;-80
2021/08/05 05:17:35;;;;;;;38.30;34.97;;;;;;;22.09;100.00;100629.06;5091185;28;20078;-79
2021/08/05 05:20:02;;;;;;;39.42;36.15;;;;;;;21.95;100.00;100634.31;5088045;28;20051;-80
2021/08/05 05:22:29;;;;;;;39.78;36.58;;;;;;;22.12;100.00;100633.09;5080751;28;20055;-83
2021/08/05 05:24:56;;;;;;;43.35;39.75;;;;;;;22.11;100.00;100631.47;5093022;28;20056;-78
2021/08/05 05:27:24;;;;;;;44.67;41.05;;;;;;;22.15;100.00;100636.03;5093557;28;20040;-78
2021/08/05 05:29:55;;;;;;;45.15;41.17;;;;;;;22.15;100.00;100632.53;5091899;28;20051;-80
2021/08/05 05:32:22;;;;;;;47.08;42.63;;;;;;;22.35;100.00;100629.63;5093960;28;20427;-80
2021/08/05 05:34:49;;;;;;;47.72;43.03;;;;;;;22.52;100.00;100620.28;5091698;27;20377;-80
2021/08/05 05:37:16;;;;;;;44.78;40.78;;;;;;;22.66;100.00;100620.38;5093945;28;20125;-79
2021/08/05 05:39:43;;;;;;;44.47;40.45;;;;;;;22.71;100.00;100621.13;5092081;28;20056;-80
2021/08/05 05:42:10;;;;;;;44.55;40.58;;;;;;;23.01;100.00;100619.97;5094442;28;20124;-79
2021/08/05 05:44:39;;;;;;;45.85;42.08;;;;;;;23.29;100.00;100614.69;5093460;28;20059;-80
2021/08/05 05:47:05;;;;;;;43.95;40.45;;;;;;;23.49;100.00;100611.69;5094063;28;20104;-81
2021/08/05 05:49:32;;;;;;;46.00;42.30;;;;;;;23.62;100.00;100609.31;5093277;28;20074;-80
2021/08/05 05:51:59;;;;;;;44.35;40.53;;;;;;;23.75;100.00;100600.44;5094550;28;20120;-80
2021/08/05 05:54:26;;;;;;;52.25;48.45;;;;;;;23.87;100.00;100597.28;5089399;28;20048;-78
2021/08/05 05:56:53;;;;;;;51.78;47.67;;;;;;;24.00;100.00;100599.22;5073756;28;20504;-79
2021/08/05 05:59:19;;;;;;;49.70;45.15;;;;;;;24.28;100.00;100596.53;5073465;28;20053;-78
2021/08/05 06:01:47;;;;;;;46.20;42.47;;;;;;;24.49;100.00;100586.13;5075279;28;20052;-78
2021/08/05 06:04:14;;;;;;;41.58;38.13;;;;;;;24.77;100.00;100586.91;5075102;28;20542;-79
2021/08/05 06:06:41;;;;;;;43.63;40.33;;;;;;;24.79;100.00;100590.91;5075369;28;20121;-80
2021/08/05 06:09:07;;;;;;;42.15;38.85;;;;;;;24.89;100.00;100581.75;5076003;28;20049;-79
2021/08/05 06:11:34;;;;;;;40.90;37.42;;;;;;;25.22;100.00;100576.16;5075152;28;20114;-77
2021/08/05 06:14:01;;;;;;;43.88;39.75;;;;;;;25.54;100.00;100575.91;5075932;28;20044;-78
2021/08/05 06:16:28;;;;;;;40.97;37.88;;;;;;;25.65;100.00;100564.78;5075527;28;20049;-79
2021/08/05 06:18:56;;;;;;;38.08;34.97;;;;;;;25.77;100.00;100565.00;5076322;28;20048;-82
2021/08/05 06:21:23;;;;;;;38.40;35.08;;;;;;;26.07;100.00;100568.88;5076256;28;20049;-81
2021/08/05 06:23:50;;;;;;;36.08;33.17;;;;;;;26.36;100.00;100567.56;5075498;28;20056;-80
2021/08/05 06:26:21;;;;;;;37.28;34.45;;;;;;;26.59;100.00;100562.81;5075946;28;20063;-78
2021/08/05 06:28:48;;;;;;;34.47;31.73;;;;;;;26.90;100.00;100544.47;5076051;28;20063;-78
2021/08/05 06:31:16;;;;;;;34.38;31.50;;;;;;;27.31;100.00;100551.34;5076280;28;20295;-78
2021/08/05 06:33:42;;;;;;;34.40;31.88;;;;;;;27.60;100.00;100558.06;5074590;28;20114;-79
2021/08/05 06:36:11;;;;;;;35.67;33.08;;;;;;;27.83;100.00;100545.81;5076036;28;20048;-80
2021/08/05 06:38:38;;;;;;;35.17;32.75;;;;;;;28.01;100.00;100551.22;5075190;28;20052;-79
2021/08/05 06:41:04;;;;;;;38.25;35.35;;;;;;;28.16;100.00;100539.75;5074945;28;20137;-78
2021/08/05 06:43:31;;;;;;;35.95;33.20;;;;;;;28.25;100.00;100539.69;5075813;28;20056;-83
2021/08/05 06:45:58;;;;;;;34.83;32.17;;;;;;;28.43;100.00;100540.44;5074788;28;20052;-79
2021/08/05 06:48:25;;;;;;;34.55;32.03;;;;;;;28.45;100.00;100535.44;5075117;28;20056;-78
2021/08/05 06:50:51;;;;;;;34.30;31.67;;;;;;;28.66;100.00;100524.56;5075573;28;20049;-79
2021/08/05 06:53:20;;;;;;;32.38;29.95;;;;;;;28.76;100.00;100524.94;5075162;28;20132;-80
2021/08/05 06:55:47;;;;;;;34.42;31.92;;;;;;;29.06;100.00;100519.44;5076299;28;20438;-78
2021/08/05 06:58:14;;;;;;;33.17;30.55;;;;;;;29.03;100.00;100513.84;5075299;28;20044;-80
2021/08/05 07:00:41;;;;;;;29.83;27.42;;;;;;;29.20;100.00;100519.94;5075055;28;20501;-80
2021/08/05 07:03:08;;;;;;;31.52;29.23;;;;;;;29.42;100.00;100507.03;5075467;28;20048;-82
2021/08/05 07:05:34;;;;;;;32.00;29.60;;;;;;;29.51;100.00;100502.25;5077436;28;20064;-78
2021/08/05 07:08:02;;;;;;;31.30;28.88;;;;;;;29.54;100.00;100490.63;5075231;28;20554;-80
2021/08/05 07:10:31;;;;;;;31.65;28.55;;;;;;;29.79;100.00;100487.94;5075222;28;20401;-79
2021/08/05 07:12:57;;;;;;;32.10;29.60;;;;;;;29.79;100.00;100482.47;5075203;28;20056;-78
2021/08/05 07:15:24;;;;;;;34.50;31.55;;;;;;;30.02;100.00;100480.09;5074661;28;20180;-80
2021/08/05 07:17:51;;;;;;;33.13;30.25;;;;;;;30.03;100.00;100473.47;5074433;28;20102;-80
2021/08/05 07:20:19;;;;;;;31.33;28.55;;;;;;;30.14;100.00;100482.81;5074714;28;20454;-82
2021/08/05 07:22:46;;;;;;;33.78;31.13;;;;;;;29.55;100.00;100470.34;5074262;28;20049;-79
2021/08/05 07:25:15;;;;;;;33.13;30.73;;;;;;;30.28;100.00;100460.56;5074494;28;20048;-79
2021/08/05 07:27:48;;;;;;;33.88;31.10;;;;;;;30.44;100.00;100461.47;5073833;28;20044;-80
2021/08/05 07:30:16;;;;;;;32.22;29.83;;;;;;;30.36;100.00;100451.44;5074923;28;20121;-80
2021/08/05 07:32:43;;;;;;;35.42;33.03;;;;;;;30.65;100.00;100455.78;5074591;28;20075;-78
2021/08/05 07:35:10;;;;;;;34.03;31.35;;;;;;;30.89;100.00;100443.16;5075462;28;20063;-80
2021/08/05 07:37:38;;;;;;;30.88;28.58;;;;;;;31.03;100.00;100441.59;5074864;28;20048;-82
2021/08/05 07:40:06;;;;;;;35.30;33.10;;;;;;;31.15;100.00;100439.94;5074096;28;20131;-80
2021/08/05 07:42:33;;;;;;;34.22;31.90;;;;;;;31.05;100.00;100440.47;5074108;28;20129;-79
2021/08/05 07:45:01;;;;;;;32.55;30.20;;;;;;;30.98;100.00;100432.84;5075293;28;20445;-80
2021/08/05 07:47:28;;;;;;;31.63;28.77;;;;;;;31.22;100.00;100435.44;5074262;28;20048;-80
2021/08/05 07:49:55;;;;;;;32.30;29.67;;;;;;;31.44;100.00;100427.81;5074374;28;20056;-80
2021/08/05 07:52:22;;;;;;;31.33;28.80;;;;;;;31.47;100.00;100435.31;5074608;28;20079;-80
2021/08/05 07:54:48;;;;;;;31.33;29.02;;;;;;;31.43;100.00;100437.16;5074105;28;20049;-80
2021/08/05 07:57:15;;;;;;;31.70;29.33;;;;;;;31.37;100.00;100424.88;5074433;28;20085;-79
2021/08/05 07:59:45;;;;;;;32.60;30.40;;;;;;;31.81;99.47;100425.56;5074363;28;20075;-81
2021/08/05 08:02:13;;;;;;;32.85;30.23;;;;;;;31.86;100.00;100418.97;5074519;28;20400;-79
2021/08/05 08:04:40;;;;;;;30.67;28.38;;;;;;;31.81;99.95;100420.06;5073124;28;20049;-80
2021/08/05 08:07:07;;;;;;;32.05;28.73;;;;;;;32.18;100.00;100414.25;5073948;28;20436;-80
2021/08/05 08:09:34;;;;;;;32.08;29.90;;;;;;;32.25;96.83;100413.59;5074398;28;20385;-79
2021/08/05 08:12:01;;;;;;;32.33;29.75;;;;;;;32.24;96.86;100414.75;5074315;28;20540;-80
2021/08/05 08:14:29;;;;;;;32.17;29.38;;;;;;;32.31;99.79;100412.16;5074430;28;20092;-80
2021/08/05 08:16:56;;;;;;;32.20;29.33;;;;;;;31.93;99.11;100413.69;5073897;28;20048;-79
2021/08/05 08:19:24;;;;;;;31.40;28.75;;;;;;;32.56;93.95;100404.47;5073979;28;20060;-79
2021/08/05 08:21:53;;;;;;;31.48;29.27;;;;;;;32.50;94.79;100403.13;5074268;28;20049;-80
2021/08/05 08:24:21;;;;;;;30.65;28.50;;;;;;;32.32;100.00;100400.03;5078069;28;20048;-79
2021/08/05 08:26:48;;;;;;;31.85;29.13;;;;;;;32.76;89.78;100405.22;5078437;28;20059;-80
2021/08/05 08:29:15;;;;;;;31.10;29.00;;;;;;;33.06;90.04;100386.97;5078402;28;20048;-79
2021/08/05 08:31:41;;;;;;;30.15;27.40;;;;;;;32.95;87.50;100390.66;5077987;28;20059;-80
2021/08/05 08:34:08;;;;;;;30.70;28.52;;;;;;;33.14;82.08;100389.84;5077803;28;20052;-80
2021/08/05 08:36:38;;;;;;;30.70;28.50;;;;;;;32.42;94.71;100379.41;5078645;28;20049;-78
2021/08/05 08:39:05;;;;;;;29.33;27.00;;;;;;;32.95;83.58;100377.72;5077861;28;20059;-79
2021/08/05 08:41:33;;;;;;;29.35;27.25;;;;;;;32.90;82.71;100377.22;5077138;28;20056;-80
2021/08/05 08:44:00;;;;;;;29.60;27.27;;;;;;;32.97;79.64;100367.13;5077470;28;20135;-81
2021/08/05 08:46:31;;;;;;;29.98;27.85;;;;;;;32.93;83.66;100373.72;5077003;28;20041;-81
2021/08/05 08:48:58;;;;;;;31.33;28.70;;;;;;;32.69;87.25;100367.41;5077822;28;20550;-79
2021/08/05 08:51:26;;;;;;;29.90;27.70;;;;;;;32.30;95.75;100363.88;5077671;28;20056;-78
2021/08/05 08:53:56;;;;;;;30.05;27.50;;;;;;;33.28;85.32;100357.88;5078227;28;20492;-80
2021/08/05 08:56:24;;;;;;;30.75;28.40;;;;;;;33.21;92.61;100351.44;5077025;28;20053;-78
2021/08/05 08:58:51;;;;;;;30.67;28.42;;;;;;;32.69;86.16;100345.41;5077920;28;20060;-80
2021/08/05 09:01:18;;;;;;;29.90;27.30;;;;;;;32.77;94.24;100355.38;5077445;28;20064;-81
2021/08/05 09:03:45;;;;;;;30.45;28.30;;;;;;;33.06;89.81;100347.66;5077250;28;20113;-80
2021/08/05 09:06:12;;;;;;;29.33;26.85;;;;;;;33.88;77.69;100351.69;5077277;28;20139;-81
2021/08/05 09:08:39;;;;;;;29.70;27.38;;;;;;;33.87;80.47;100350.09;5077074;28;20053;-84
2021/08/05 09:11:08;;;;;;;30.55;28.30;;;;;;;31.48;93.00;100351.84;5077168;28;20063;-79
2021/08/05 09:13:35;;;;;;;31.42;28.95;;;;;;;33.59;84.73;100344.19;5077360;28;20409;-78
2021/08/05 09:16:02;;;;;;;29.88;27.48;;;;;;;34.00;80.49;100336.09;5077650;28;20121;-79
2021/08/05 09:18:32;;;;;;;30.00;27.58;;;;;;;34.16;75.41;100333.94;5078155;28;20512;-80
2021/08/05 09:21:07;;;;;;;29.77;27.33;;;;;;;34.17;75.85;100333.59;5077742;28;20056;-80
2021/08/05 09:23:49;;;;;;;28.98;26.65;;;;;;;34.75;68.59;100329.50;5077419;28;20052;-79
2021/08/05 09:26:29;;;;;;;29.60;26.88;;;;;;;34.90;61.75;100329.66;5077540;28;20055;-79
2021/08/05 09:29:06;;;;;;;29.48;26.88;;;;;;;34.97;54.69;100335.22;5076821;28;20048;-79
2021/08/05 09:31:34;;;;;;;32.05;29.70;;;;;;;34.84;54.92;100329.19;5076239;28;20435;-77
2021/08/05 09:34:05;;;;;;;29.52;27.08;;;;;;;34.72;60.64;100310.19;5076761;28;20040;-80
2021/08/05 09:36:32;;;;;;;30.75;28.13;;;;;;;35.03;62.42;100319.91;5076390;28;20053;-79
2021/08/05 09:38:59;;;;;;;30.80;27.88;;;;;;;34.62;57.68;100308.91;5076381;28;20044;-79
2021/08/05 09:41:28;;;;;;;30.63;28.40;;;;;;;34.58;58.06;100316.34;5075879;28;20059;-79
2021/08/05 09:44:02;;;;;;;33.05;30.35;;;;;;;35.53;54.29;100317.53;5077826;28;20067;-79
2021/08/05 09:46:31;;;;;;;34.97;32.13;;;;;;;35.26;53.58;100308.69;5076622;28;20473;-78
2021/08/05 09:48:58;;;;;;;32.70;30.15;;;;;;;35.43;50.73;100310.75;5076810;28;20044;-78
2021/08/05 09:51:25;;;;;;;32.15;29.92;;;;;;;34.95;53.88;100302.50;5077035;28;20052;-79
2021/08/05 09:54:03;;;;;;;33.63;30.83;;;;;;;33.56;74.62;100293.44;5077053;28;20049;-78
2021/08/05 09:56:33;;;;;;;32.83;29.95;;;;;;;33.77;65.47;100281.91;5076197;28;20121;-79
2021/08/05 09:59:12;;;;;;;31.52;29.00;;;;;;;32.98;74.31;100283.50;5075871;28;20048;-79
2021/08/05 10:01:59;;;;;;;33.65;30.98;;;;;;;33.91;76.30;100284.03;5075778;28;20049;-81
2021/08/05 10:04:28;;;;;;;31.75;28.95;;;;;;;32.78;93.95;100287.44;5076818;28;20044;-80
2021/08/05 10:07:23;;;;;;;33.15;30.25;;;;;;;31.93;95.46;100279.94;5076311;28;20064;-79
2021/08/05 10:09:57;;;;;;;34.65;31.75;;;;;;;32.48;100.00;100284.56;5076209;28;20404;-78
2021/08/05 10:12:30;;;;;;;31.52;28.92;;;;;;;33.55;100.00;100277.28;5076498;28;20101;-80
2021/08/05 10:15:06;;;;;;;33.42;30.73;;;;;;;32.25;100.00;100276.22;5077123;28;20063;-83
2021/08/05 10:17:34;;;;;;;34.42;31.75;;;;;;;32.30;100.00;100271.25;5075073;28;20049;-79
2021/08/05 10:20:03;;;;;;;32.40;29.48;;;;;;;32.99;100.00;100270.53;5076103;28;20102;-78
2021/08/05 10:22:31;;;;;;;32.65;29.75;;;;;;;32.56;100.00;100264.28;5076086;28;20122;-79
2021/08/05 10:24:59;;;;;;;32.85;29.98;;;;;;;33.41;100.00;100261.34;5076669;28;20082;-78
2021/08/05 10:27:27;;;;;;;30.77;27.98;;;;;;;34.18;86.97;100254.47;5076397;28;20462;-77
2021/08/05 10:29:55;;;;;;;31.30;28.65;;;;;;;33.09;99.58;100261.66;5075889;28;20049;-77
2021/08/05 10:32:23;;;;;;;30.52;28.08;;;;;;;34.88;87.45;100253.56;5076669;28;20059;-78
2021/08/05 10:34:51;;;;;;;32.22;29.67;;;;;;;34.37;81.14;100254.25;5075468;28;20114;-77
2021/08/05 10:37:18;;;;;;;30.52;28.10;;;;;;;33.72;87.97;100249.19;5076054;28;20057;-80
2021/08/05 10:39:46;;;;;;;31.50;28.50;;;;;;;34.22;93.55;100241.50;5075837;28;20052;-78
2021/08/05 10:42:17;;;;;;;30.33;27.60;;;;;;;34.61;86.26;100244.69;5075317;28;20493;-77
2021/08/05 10:44:46;;;;;;;29.48;27.10;;;;;;;33.81;75.49;100235.16;5074900;28;20481;-77
2021/08/05 10:47:18;;;;;;;29.63;26.95;;;;;;;34.14;84.66;100235.16;5074344;28;20110;-77
2021/08/05 10:49:46;;;;;;;30.27;27.50;;;;;;;33.94;86.70;100233.72;5074507;28;20483;-78
2021/08/05 10:52:44;;;;;;;30.02;27.50;;;;;;;34.46;81.75;100226.41;5076192;28;20048;-77
2021/08/05 10:55:29;;;;;;;30.95;28.20;;;;;;;34.27;72.53;100223.88;5074783;28;20461;-79
2021/08/05 10:58:15;;;;;;;30.23;27.73;;;;;;;33.92;81.70;100212.06;5074088;28;20060;-78
2021/08/05 11:01:10;;;;;;;30.63;28.00;;;;;;;34.65;95.84;100212.44;5075948;28;20472;-77
2021/08/05 11:03:44;;;;;;;31.58;29.02;;;;;;;34.50;81.97;100207.16;5075159;28;20052;-79
2021/08/05 11:06:29;;;;;;;32.05;29.63;;;;;;;35.31;78.25;100200.66;5074692;28;20113;-78
2021/08/05 11:09:00;;;;;;;31.92;29.15;;;;;;;33.45;83.87;100196.13;5074787;28;20068;-79
2021/08/05 11:11:32;;;;;;;32.10;29.45;;;;;;;36.36;67.23;100184.03;5074766;28;20498;-78
2021/08/05 11:14:36;;;;;;;34.20;30.95;;;;;;;37.21;52.87;100182.41;5075250;28;20048;-78